Time;durP1;ratioP1;P1;durP2;ratioP2;P2;SDS_P1;SDS_P2;PMS_P1;PMS_P2;Temp;Humidity;BMP_temperature;BMP_pressure;BME280_temperature;BME280_humidity;BME280_pressure;Samples;Min_cycle;Max_cycle;Signal;HPM_P1;HPM_P2
2022/07/24 00:00:26;;;;;;;4.47;2.67;;;18.20;1.40;;;19.96;100.00;95753.30;648882;212;31601;-74
2022/07/24 00:03:14;;;;;;;3.27;2.50;;;18.10;1.40;;;19.93;100.00;95754.04;643417;217;42199;-74
2022/07/24 00:05:55;;;;;;;5.95;3.03;;;18.00;1.40;;;19.75;100.00;95756.97;648492;216;42026;-74
2022/07/24 00:08:38;;;;;;;3.67;3.10;;;18.00;1.40;;;19.68;100.00;95763.33;652892;212;42379;-75
2022/07/24 00:11:19;;;;;;;3.40;2.20;;;17.90;1.40;;;19.68;100.00;95765.14;647710;212;31987;-74
2022/07/24 00:14:00;;;;;;;3.35;3.08;;;17.90;1.40;;;19.71;100.00;95763.94;622282;226;31899;-74
2022/07/24 00:16:44;;;;;;;3.20;2.78;;;17.90;1.40;;;19.74;100.00;95756.19;649535;216;31521;-74
2022/07/24 00:19:28;;;;;;;5.37;3.33;;;18.10;1.40;;;19.80;100.00;95747.23;647777;216;31562;-75
2022/07/24 00:22:09;;;;;;;3.70;2.90;;;18.20;1.40;;;19.83;100.00;95744.55;644256;216;32017;-74
2022/07/24 00:27:32;;;;;;;2.40;2.00;;;18.20;1.40;;;19.93;100.00;95746.48;653905;212;31559;-74
2022/07/24 00:30:14;;;;;;;3.80;2.67;;;18.40;1.40;;;20.03;100.00;95753.05;645429;212;31785;-74
2022/07/24 00:32:55;;;;;;;3.83;2.65;;;18.40;1.40;;;19.67;100.00;95755.28;649312;216;31634;-75
2022/07/24 00:35:53;;;;;;;3.95;2.90;;;18.20;1.40;;;19.29;100.00;95751.69;651199;216;31600;-75
2022/07/24 00:38:35;;;;;;;2.92;2.60;;;18.00;1.40;;;19.21;100.00;95758.59;651643;216;42178;-74
2022/07/24 00:41:16;;;;;;;3.50;2.58;;;17.90;1.40;;;19.33;100.00;95761.64;651042;212;31567;-74
2022/07/24 00:44:06;;;;;;;5.50;2.58;;;17.90;1.40;;;19.43;100.00;95760.46;646087;216;31636;-74
2022/07/24 00:46:54;;;;;;;5.55;2.75;;;18.00;1.40;;;19.48;100.00;95761.34;647508;216;31574;-73
2022/07/24 00:49:36;;;;;;;5.32;2.80;;;18.00;1.40;;;19.57;100.00;95760.91;644908;212;31573;-74
2022/07/24 00:52:17;;;;;;;2.70;2.20;;;18.20;1.40;;;19.67;100.00;95758.17;648477;212;31537;-74
2022/07/24 00:54:59;;;;;;;2.50;2.30;;;18.20;1.40;;;19.69;100.00;95757.43;635674;216;42377;-74
2022/07/24 00:57:43;;;;;;;2.47;2.28;;;18.40;1.40;;;19.79;100.00;95755.90;650166;216;31538;-74
2022/07/24 01:00:22;;;;;;;2.35;2.10;;;18.40;1.40;;;19.90;100.00;95757.67;645127;216;31852;-74
2022/07/24 01:03:07;;;;;;;3.45;2.80;;;18.40;1.40;;;20.01;100.00;95757.88;646338;212;42751;-75
2022/07/24 01:05:55;;;;;;;5.12;3.60;;;18.40;1.40;;;19.99;100.00;95756.31;650325;216;31532;-74
2022/07/24 01:08:43;;;;;;;3.78;2.67;;;18.50;1.40;;;19.94;100.00;95757.75;648413;216;31637;-74
2022/07/24 01:11:27;;;;;;;3.65;2.70;;;18.40;1.40;;;19.96;100.00;95756.64;649838;212;31659;-74
2022/07/24 01:14:15;;;;;;;5.28;3.50;;;18.40;1.40;;;19.88;100.00;95750.95;653581;216;31720;-75
2022/07/24 01:16:56;;;;;;;4.30;3.67;;;18.40;1.40;;;19.79;100.00;95746.45;648787;212;31569;-75
2022/07/24 01:19:44;;;;;;;3.47;2.45;;;18.30;1.40;;;19.85;100.00;95746.12;652926;216;31636;-75
2022/07/24 01:22:32;;;;;;;3.90;3.42;;;18.30;1.40;;;19.84;100.00;95746.00;646406;212;31566;-74
2022/07/24 01:25:14;;;;;;;2.42;2.22;;;18.30;1.40;;;19.80;100.00;95745.25;649290;212;31600;-74
2022/07/24 01:27:55;;;;;;;3.92;3.28;;;18.40;1.40;;;19.81;100.00;95748.72;655994;216;42586;-74
2022/07/24 01:30:37;;;;;;;3.27;2.40;;;18.50;1.40;;;19.90;100.00;95748.17;646666;216;31517;-74
2022/07/24 01:35:51;;;;;;;4.07;3.40;;;18.50;1.40;;;20.00;100.00;95738.80;651667;212;31754;-75
2022/07/24 01:38:32;;;;;;;3.35;2.72;;;18.50;1.40;;;20.00;100.00;95738.43;647025;216;31596;-74
2022/07/24 01:41:14;;;;;;;3.90;3.30;;;18.50;1.40;;;19.99;100.00;95742.19;643909;216;32013;-74
2022/07/24 01:43:58;;;;;;;4.45;2.90;;;18.60;1.40;;;19.98;100.00;95738.02;651005;216;42218;-74
2022/07/24 01:46:39;;;;;;;3.67;2.90;;;18.50;1.40;;;20.00;100.00;95740.83;646105;216;42261;-74
2022/07/24 01:49:21;;;;;;;3.75;3.40;;;18.50;1.40;;;20.01;100.00;95738.34;652875;212;32270;-75
2022/07/24 01:52:09;;;;;;;4.50;3.05;;;18.50;1.40;;;20.09;100.00;95742.80;646373;216;31562;-74
2022/07/24 01:54:50;;;;;;;5.37;2.65;;;18.50;1.40;;;19.98;100.00;95741.86;637381;216;42358;-74
2022/07/24 01:57:35;;;;;;;3.80;2.28;;;18.40;1.40;;;19.87;100.00;95740.55;648742;216;31753;-74
2022/07/24 02:00:17;;;;;;;3.10;2.80;;;18.30;1.40;;;19.86;100.00;95736.42;649171;216;32233;-74
2022/07/24 02:02:59;;;;;;;4.87;2.90;;;18.20;1.40;;;19.86;100.00;95733.81;650615;216;31608;-74
2022/07/24 02:05:40;;;;;;;4.70;3.33;;;18.20;1.40;;;19.79;100.00;95732.83;652903;212;31589;-74
2022/07/24 02:08:22;;;;;;;2.80;2.30;;;18.20;1.40;;;19.79;100.00;95729.11;647586;212;43012;-74
2022/07/24 02:11:04;;;;;;;3.35;2.47;;;18.10;1.40;;;19.69;100.00;95728.41;644635;212;32032;-74
2022/07/24 02:13:45;;;;;;;3.20;2.70;;;18.00;1.40;;;19.58;100.00;95722.75;649472;216;31530;-74
2022/07/24 02:16:30;;;;;;;3.20;2.90;;;17.90;1.40;;;19.52;100.00;95721.78;649568;212;32061;-75
2022/07/24 02:19:14;;;;;;;3.53;2.35;;;18.00;1.40;;;19.49;100.00;95718.89;652263;216;31809;-75
2022/07/24 02:22:01;;;;;;;2.90;2.62;;;18.00;1.40;;;19.53;100.00;95717.80;652301;216;31761;-74
2022/07/24 02:24:49;;;;;;;3.28;2.50;;;18.00;1.40;;;19.62;100.00;95721.59;649699;216;31577;-75
2022/07/24 02:27:33;;;;;;;3.05;2.75;;;17.90;1.40;;;19.58;100.00;95727.25;632492;221;31715;-74
2022/07/24 02:30:16;;;;;;;3.20;2.70;;;17.90;1.40;;;19.50;100.00;95732.83;646439;216;42195;-74
2022/07/24 02:35:51;;;;;;;3.80;2.67;;;17.80;1.40;;;19.29;100.00;95731.07;647091;216;31581;-75
2022/07/24 02:38:33;;;;;;;2.42;2.22;;;17.80;1.40;;;19.27;100.00;95732.59;646725;216;31781;-74
2022/07/24 02:41:17;;;;;;;5.10;2.83;;;17.80;1.40;;;19.22;100.00;95732.37;650307;212;32053;-74
2022/07/24 02:44:05;;;;;;;2.83;2.45;;;17.70;1.40;;;19.02;100.00;95733.11;652666;216;31571;-75
2022/07/24 02:46:53;;;;;;;4.10;3.30;;;17.50;1.40;;;18.91;100.00;95733.36;648777;216;31545;-74
2022/07/24 02:49:40;;;;;;;3.17;2.87;;;17.30;1.40;;;18.82;100.00;95729.41;646892;216;31781;-74
2022/07/24 02:55:02;;;;;;;4.55;2.78;;;17.00;1.40;;;18.69;100.00;95731.63;610420;225;32051;-74
2022/07/24 02:57:44;;;;;;;4.05;3.15;;;16.90;1.40;;;18.62;100.00;95732.59;644920;216;31566;-74
2022/07/24 03:00:28;;;;;;;2.72;2.20;;;17.00;1.40;;;18.51;100.00;95729.42;646578;216;31597;-74
2022/07/24 03:03:09;;;;;;;5.50;3.50;;;16.90;1.40;;;18.47;100.00;95728.73;645666;216;31523;-74
2022/07/24 03:05:54;;;;;;;3.85;3.12;;;16.90;1.40;;;18.43;100.00;95734.41;618431;226;31911;-75
2022/07/24 03:08:36;;;;;;;5.40;2.83;;;16.80;1.40;;;18.43;100.00;95736.71;647254;212;31557;-74
2022/07/24 03:11:18;;;;;;;2.28;2.08;;;16.70;1.40;;;18.20;100.00;95735.06;649245;216;31558;-74
2022/07/24 03:13:59;;;;;;;2.60;2.10;;;16.50;1.40;;;18.02;100.00;95728.70;651369;216;31969;-74
2022/07/24 03:16:41;;;;;;;3.87;2.55;;;16.50;1.40;;;17.96;100.00;95729.89;649913;216;31653;-74
2022/07/24 03:19:23;;;;;;;3.30;2.83;;;16.50;1.40;;;18.05;100.00;95726.60;649784;212;31547;-74
2022/07/24 03:22:04;;;;;;;3.80;2.60;;;16.70;1.40;;;18.06;100.00;95721.50;621098;222;31891;-74
2022/07/24 03:24:46;;;;;;;2.00;1.80;;;16.80;1.40;;;17.99;100.00;95723.66;644165;214;31569;-74
2022/07/24 03:27:28;;;;;;;3.03;2.83;;;16.70;1.40;;;17.93;100.00;95720.07;649911;212;31558;-74
2022/07/24 03:32:44;;;;;;;4.00;2.87;;;16.40;1.40;;;17.82;100.00;95715.17;648882;212;31543;-74
2022/07/24 03:35:55;;;;;;;3.95;2.28;;;16.30;1.40;;;17.76;100.00;95718.09;647393;212;31691;-73
2022/07/24 03:38:36;;;;;;;3.72;2.70;;;16.30;1.40;;;17.75;100.00;95720.59;649171;212;31556;-74
2022/07/24 03:41:18;;;;;;;7.70;2.90;;;16.20;1.40;;;17.77;100.00;95722.50;649098;212;31523;-74
2022/07/24 03:44:00;;;;;;;3.87;3.28;;;16.40;1.40;;;17.78;100.00;95717.61;648549;212;31536;-74
2022/07/24 03:46:45;;;;;;;3.58;2.70;;;16.40;1.40;;;17.83;100.00;95727.66;646795;212;31558;-74
2022/07/24 03:49:26;;;;;;;4.28;3.50;;;16.50;1.40;;;17.83;100.00;95723.70;646560;216;31541;-74
2022/07/24 03:52:08;;;;;;;3.70;2.65;;;16.40;1.40;;;17.71;100.00;95724.06;650127;216;31824;-74
2022/07/24 03:54:50;;;;;;;2.97;2.67;;;16.30;1.40;;;17.64;100.00;95726.90;636077;216;31823;-74
2022/07/24 03:57:37;;;;;;;1.98;1.77;;;16.10;1.40;;;17.62;100.00;95728.28;645587;212;31558;-74
2022/07/24 04:00:19;;;;;;;2.33;2.12;;;16.00;1.40;;;17.60;100.00;95727.28;645235;212;31535;-74
2022/07/24 04:03:03;;;;;;;3.12;2.53;;;16.00;1.40;;;17.55;100.00;95727.89;647681;212;31558;-73
2022/07/24 04:05:44;;;;;;;3.72;2.42;;;15.90;1.40;;;17.55;100.00;95733.07;649720;216;31571;-74
2022/07/24 04:08:26;;;;;;;3.67;2.65;;;16.00;1.40;;;17.58;100.00;95735.23;644972;212;31686;-74
2022/07/24 04:11:08;;;;;;;3.78;2.70;;;16.00;1.40;;;17.70;100.00;95738.08;647332;212;31547;-73
2022/07/24 04:13:50;;;;;;;3.00;2.00;;;16.10;1.40;;;17.67;100.00;95743.37;646853;216;31515;-74
2022/07/24 04:16:31;;;;;;;3.15;2.42;;;16.00;1.40;;;17.46;100.00;95746.08;619718;226;31880;-73
2022/07/24 04:19:13;;;;;;;2.47;1.60;;;15.90;1.40;;;17.38;100.00;95750.11;648186;216;31561;-74
2022/07/24 04:21:55;;;;;;;6.05;2.67;;;15.80;1.40;;;17.49;100.00;95761.77;619835;226;32004;-74
2022/07/24 04:24:39;;;;;;;4.03;3.62;;;15.90;1.40;;;17.50;100.00;95757.45;644987;212;33180;-73
2022/07/24 04:27:21;;;;;;;2.95;2.65;;;16.10;1.40;;;17.54;100.00;95755.14;646260;216;32147;-73
2022/07/24 04:30:04;;;;;;;5.30;3.20;;;16.10;1.40;;;17.59;100.00;95757.74;645738;212;32157;-73
2022/07/24 04:32:45;;;;;;;3.17;2.75;;;16.20;1.40;;;17.67;100.00;95760.28;648739;216;31661;-74
2022/07/24 04:35:51;;;;;;;2.83;2.30;;;16.20;1.40;;;17.75;100.00;95758.89;624702;226;32013;-74
2022/07/24 04:38:33;;;;;;;5.75;2.97;;;16.30;1.40;;;17.80;100.00;95755.31;646351;216;31545;-74
2022/07/24 04:41:21;;;;;;;2.90;2.65;;;16.30;1.40;;;17.92;100.00;95761.75;647580;216;31529;-75
2022/07/24 04:44:15;;;;;;;5.45;3.40;;;16.50;1.40;;;18.01;100.00;95761.12;648169;216;32176;-74
2022/07/24 04:46:57;;;;;;;3.58;2.22;;;16.50;1.40;;;18.08;100.00;95757.87;648736;213;32130;-74
2022/07/24 04:49:39;;;;;;;4.05;2.90;;;16.60;1.40;;;18.23;100.00;95756.56;646271;212;31890;-74
2022/07/24 04:52:20;;;;;;;3.05;2.65;;;16.90;1.40;;;18.39;100.00;95760.66;618385;226;32073;-74
2022/07/24 04:57:37;;;;;;;5.10;3.70;;;17.10;1.40;;;18.51;100.00;95765.34;645799;212;31558;-74
2022/07/24 05:00:19;;;;;;;4.28;2.50;;;17.10;1.40;;;18.56;100.00;95769.82;646785;212;31564;-74
2022/07/24 05:03:01;;;;;;;6.20;3.90;;;17.10;1.40;;;18.59;100.00;95768.23;649211;212;31546;-74
2022/07/24 05:05:43;;;;;;;3.08;2.78;;;17.20;1.40;;;18.72;100.00;95771.53;650720;212;31540;-74
2022/07/24 05:08:25;;;;;;;4.47;2.95;;;17.30;1.40;;;18.80;100.00;95774.20;645291;212;31581;-74
2022/07/24 05:11:06;;;;;;;4.87;3.47;;;17.40;1.40;;;18.85;100.00;95778.18;647304;216;33135;-77
2022/07/24 05:13:48;;;;;;;4.35;3.20;;;17.60;1.40;;;18.93;100.00;95776.36;645186;216;31656;-75
2022/07/24 05:16:30;;;;;;;3.72;3.42;;;17.80;1.40;;;19.05;100.00;95777.27;648052;216;31655;-74
2022/07/24 05:19:11;;;;;;;5.32;3.55;;;17.80;1.40;;;19.07;100.00;95779.01;647937;216;31669;-75
2022/07/24 05:21:53;;;;;;;7.18;4.35;;;17.90;1.40;;;19.17;100.00;95779.03;646221;216;31514;-74
2022/07/24 05:24:35;;;;;;;4.65;3.33;;;18.00;1.40;;;19.34;100.00;95779.70;648373;212;31561;-74
2022/07/24 05:27:16;;;;;;;4.37;3.30;;;18.20;1.40;;;19.41;100.00;95780.50;652119;216;31568;-75
2022/07/24 05:29:58;;;;;;;4.95;3.50;;;18.20;1.40;;;19.43;100.00;95775.84;650432;216;31618;-74
2022/07/24 05:32:46;;;;;;;4.03;3.45;;;18.30;1.40;;;19.53;100.00;95776.15;646918;216;31543;-74
2022/07/24 05:35:57;;;;;;;5.97;3.90;;;18.40;1.40;;;19.69;100.00;95774.10;646313;216;31597;-75
2022/07/24 05:38:40;;;;;;;4.65;3.78;;;18.40;1.40;;;19.82;100.00;95774.60;650915;212;31679;-74
2022/07/24 05:43:57;;;;;;;5.62;4.12;;;18.60;1.40;;;19.97;100.00;95775.67;647753;216;31913;-74
2022/07/24 05:49:19;;;;;;;4.75;4.35;;;18.80;1.40;;;20.15;100.00;95778.14;646344;212;31573;-74
2022/07/24 05:52:02;;;;;;;7.82;3.67;;;18.50;1.40;;;20.13;100.00;95782.48;649471;213;42759;-75
2022/07/24 05:54:42;;;;;;;5.05;4.65;;;18.20;1.40;;;20.08;100.00;95782.37;648766;216;32317;-76
2022/07/24 05:57:24;;;;;;;5.53;3.53;;;18.10;1.40;;;19.93;100.00;95780.83;649224;216;31678;-75
2022/07/24 06:00:07;;;;;;;6.50;4.03;;;17.90;1.40;;;19.82;100.00;95785.66;649393;216;31571;-74
2022/07/24 06:02:48;;;;;;;7.68;4.10;;;17.80;1.40;;;19.72;100.00;95780.12;645870;216;42211;-75
2022/07/24 06:05:30;;;;;;;8.45;4.30;;;17.90;1.40;;;19.79;100.00;95774.64;646593;216;42187;-75
2022/07/24 06:08:12;;;;;;;7.25;4.18;;;17.90;1.40;;;19.86;100.00;95772.55;647539;216;31530;-74
2022/07/24 06:10:53;;;;;;;13.20;4.22;;;17.90;1.40;;;19.85;100.00;95775.89;649011;216;31835;-74
2022/07/24 06:13:35;;;;;;;6.43;3.85;;;17.70;1.40;;;19.76;100.00;95774.55;648722;216;31531;-75
2022/07/24 06:16:20;;;;;;;6.53;4.10;;;17.80;1.40;;;19.79;100.00;95775.67;645105;216;31589;-74
2022/07/24 06:19:01;;;;;;;4.47;3.53;;;17.90;1.40;;;19.87;100.00;95776.17;648485;212;31567;-74
2022/07/24 06:21:46;;;;;;;5.55;3.85;;;18.00;1.40;;;20.02;100.00;95771.59;646588;212;31744;-74
2022/07/24 06:24:28;;;;;;;6.22;5.07;;;18.10;1.40;;;20.10;100.00;95772.94;648778;212;32004;-75
2022/07/24 06:27:10;;;;;;;5.30;3.67;;;18.10;1.40;;;20.13;100.00;95775.45;643641;216;31635;-74
2022/07/24 06:29:51;;;;;;;3.97;2.92;;;18.20;1.40;;;20.21;100.00;95773.64;649192;212;31532;-75
2022/07/24 06:32:33;;;;;;;8.07;4.70;;;18.20;1.40;;;20.24;100.00;95775.95;647264;212;31556;-74
2022/07/24 06:35:51;;;;;;;4.80;3.72;;;18.10;1.40;;;20.26;100.00;95775.29;646299;216;32309;-74
2022/07/24 06:38:33;;;;;;;5.55;4.10;;;18.20;1.40;;;20.45;100.00;95780.95;646418;212;31707;-74
2022/07/24 06:41:18;;;;;;;5.87;4.05;;;18.40;1.40;;;20.47;100.00;95781.22;645689;216;31583;-74
2022/07/24 06:43:59;;;;;;;4.18;3.78;;;18.40;1.40;;;20.51;100.00;95778.45;645953;216;31598;-74
2022/07/24 06:46:41;;;;;;;3.00;2.78;;;18.50;1.40;;;20.61;100.00;95779.70;647469;216;31569;-74
2022/07/24 06:49:23;;;;;;;3.30;3.00;;;18.60;1.40;;;20.71;100.00;95780.34;644850;212;42193;-74
2022/07/24 06:52:10;;;;;;;4.03;2.62;;;18.70;1.40;;;20.79;100.00;95778.45;647298;216;43693;-76
2022/07/24 06:54:58;;;;;;;4.97;3.87;;;18.70;1.40;;;20.91;100.00;95778.91;648519;216;31929;-74
2022/07/24 06:57:43;;;;;;;4.90;4.37;;;18.80;1.40;;;20.98;100.00;95775.48;646601;212;31652;-74
2022/07/24 07:00:30;;;;;;;;;;;19.00;1.40;;;21.15;100.00;95778.64;653836;216;25077;-76
2022/07/24 07:03:14;;;;;;;;;;;19.40;1.40;;;21.32;100.00;95776.22;656093;216;25018;-74
2022/07/24 07:06:01;;;;;;;;;;;19.70;1.40;;;21.52;100.00;95776.31;654265;216;25329;-76
2022/07/24 07:08:44;;;;;;;;;;;20.10;1.40;;;21.70;100.00;95776.77;653440;216;24826;-74
2022/07/24 07:11:25;;;;;;;;;;;20.20;1.40;;;21.91;100.00;95781.92;655214;216;24734;-75
2022/07/24 07:14:07;;;;;;;;;;;20.30;1.40;;;22.04;100.00;95787.72;651913;215;25191;-74
2022/07/24 07:16:48;;;;;;;;;;;20.30;1.40;;;22.32;100.00;95784.98;653602;216;24889;-75
2022/07/24 07:19:35;;;;;;;;;;;20.60;1.40;;;22.56;100.00;95790.77;649582;219;24852;-77
2022/07/24 07:22:23;;;;;;;;;;;20.70;1.40;;;22.78;100.00;95790.66;649687;217;25215;-75
2022/07/24 07:25:10;;;;;;;;;;;20.90;1.40;;;22.85;100.00;95788.96;653312;212;25069;-76
2022/07/24 07:27:51;;;;;;;;;;;20.90;1.40;;;22.95;100.00;95791.33;653060;212;24891;-75
2022/07/24 07:30:33;;;;;;;;;;;21.00;1.40;;;23.15;100.00;95795.98;655403;213;24817;-76
2022/07/24 07:35:53;;;;;;;;;;;21.30;1.40;;;23.59;100.00;95795.85;651513;216;24994;-73
2022/07/24 07:38:37;;;;;;;;;;;21.50;1.40;;;23.74;100.00;95794.43;654600;216;24924;-74
2022/07/24 07:41:19;;;;;;;;;;;21.60;1.40;;;23.88;100.00;95795.17;655301;216;24823;-74
2022/07/24 07:44:04;;;;;;;;;;;21.70;1.40;;;23.88;100.00;95795.55;649803;217;24809;-76
2022/07/24 07:46:51;;;;;;;;;;;21.90;1.40;;;23.90;100.00;95791.90;655835;212;24734;-74
2022/07/24 07:49:34;;;;;;;;;;;21.90;1.40;;;24.04;100.00;95791.55;655765;212;24828;-75
2022/07/24 07:52:18;;;;;;;;;;;22.00;1.40;;;24.31;100.00;95790.13;654507;216;24913;-75
2022/07/24 07:55:05;;;;;;;;;;;22.20;1.40;;;24.63;100.00;95793.81;641604;216;24882;-76
2022/07/24 07:57:46;;;;;;;;;;;22.60;1.40;;;24.79;100.00;95789.22;655005;216;24904;-76
2022/07/24 08:00:30;;;;;;;;;;;22.60;1.40;;;24.86;100.00;95793.75;652838;216;25090;-75
2022/07/24 08:03:11;;;;;;;;;;;22.80;1.40;;;25.05;100.00;95791.47;657736;212;24816;-74
2022/07/24 08:05:52;;;;;;;;;;;23.00;1.40;;;25.14;100.00;95788.15;655147;212;24913;-74
2022/07/24 08:08:34;;;;;;;;;;;22.90;1.40;;;25.23;100.00;95792.84;658005;216;24808;-74
2022/07/24 08:11:15;;;;;;;;;;;23.10;1.40;;;25.55;100.00;95793.58;654869;216;24841;-74
2022/07/24 08:13:59;;;;;;;;;;;23.40;1.40;;;25.57;100.00;95792.23;651792;216;24808;-73
2022/07/24 08:16:41;;;;;;;;;;;23.50;1.40;;;25.85;100.00;95791.79;653645;216;24751;-74
2022/07/24 08:19:25;;;;;;;;;;;23.70;1.40;;;26.20;100.00;95793.42;654270;216;24807;-74
2022/07/24 08:22:07;;;;;;;;;;;24.10;1.40;;;26.45;100.00;95793.31;652200;212;25261;-75
2022/07/24 08:24:51;;;;;;;;;;;24.30;1.40;;;26.22;100.00;95791.23;654330;216;25344;-74
2022/07/24 08:27:32;;;;;;;;;;;23.90;1.40;;;26.53;100.00;95789.98;653853;216;24713;-74
2022/07/24 08:30:14;;;;;;;;;;;24.10;1.40;;;26.80;98.00;95791.73;656050;216;24815;-74
2022/07/24 08:32:58;;;;;;;;;;;24.60;1.40;;;27.03;96.39;95791.25;650266;215;25323;-76
2022/07/24 08:35:57;;;;;;;5.17;4.67;;;24.50;1.40;;;27.27;95.33;95790.34;648778;216;31604;-74
2022/07/24 08:38:38;;;;;;;5.65;4.70;;;24.80;1.40;;;27.16;96.64;95789.05;643762;216;31583;-74
2022/07/24 08:41:26;;;;;;;6.43;4.82;;;24.40;1.40;;;27.50;96.55;95787.22;649576;212;32186;-74
2022/07/24 08:44:08;;;;;;;4.87;4.37;;;24.90;1.40;;;27.33;88.05;95782.68;647005;212;31567;-75
2022/07/24 08:46:50;;;;;;;4.93;4.43;;;25.20;1.40;;;27.34;88.73;95781.20;648620;212;32119;-78
2022/07/24 08:49:38;;;;;;;6.57;4.30;;;25.10;1.40;;;27.78;90.47;95783.52;647773;216;31636;-74
2022/07/24 08:52:20;;;;;;;4.47;4.07;;;25.20;1.40;;;27.81;88.63;95779.95;645024;216;31792;-74
2022/07/24 08:55:01;;;;;;;5.12;4.43;;;25.30;1.40;;;27.95;90.61;95777.83;646309;216;31611;-75
2022/07/24 08:57:46;;;;;;;7.10;5.00;;;25.40;1.40;;;28.62;89.16;95774.16;648204;216;31623;-74
2022/07/24 09:00:28;;;;;;;5.53;4.90;;;26.20;1.40;;;28.89;90.24;95775.64;646720;216;31563;-74
2022/07/24 09:03:09;;;;;;;4.70;4.20;;;26.10;1.40;;;28.80;89.91;95777.94;649532;216;31522;-74
2022/07/24 09:05:55;;;;;;;5.57;4.68;;;26.50;1.40;;;28.79;81.10;95779.09;647731;216;31688;-75
2022/07/24 09:08:40;;;;;;;4.68;4.25;;;26.20;1.40;;;28.57;83.25;95777.10;644977;216;31883;-75
2022/07/24 09:11:21;;;;;;;6.20;4.65;;;26.50;1.40;;;29.00;83.43;95773.73;646659;216;31555;-74
2022/07/24 09:16:52;;;;;;;6.28;4.72;;;27.60;1.40;;;29.62;83.02;95766.48;646260;216;31880;-75
2022/07/24 09:19:32;;;;;;;5.43;4.45;;;28.00;1.40;;;30.18;81.22;95755.73;650236;216;31571;-75
2022/07/24 09:22:39;;;;;;;5.70;4.40;;;28.70;1.40;;;30.46;78.11;95756.91;649432;212;42739;-76
2022/07/24 09:25:27;;;;;;;4.20;3.80;;;29.30;1.40;;;30.49;73.22;95759.14;646728;216;32317;-74
2022/07/24 09:28:09;;;;;;;4.22;3.83;;;30.30;1.40;;;31.86;71.12;95755.30;647734;216;32235;-74
2022/07/24 09:30:50;;;;;;;5.18;4.50;;;32.90;1.40;;;32.97;64.37;95754.41;645621;212;32434;-74
2022/07/24 09:35:51;;;;;;;5.28;4.78;;;33.70;1.40;;;33.99;64.75;95748.84;645939;216;32186;-75
2022/07/24 09:38:33;;;;;;;4.22;3.83;;;34.00;1.40;;;35.65;60.08;95746.48;647743;216;31840;-73
2022/07/24 09:41:14;;;;;;;5.37;4.87;;;34.90;1.40;;;35.29;56.64;95743.79;647997;212;32026;-74
2022/07/24 09:44:00;;;;;;;5.00;4.50;;;34.40;1.40;;;33.86;56.84;95745.19;645435;216;32181;-74
2022/07/24 09:46:41;;;;;;;4.90;4.32;;;33.30;1.40;;;34.91;58.53;95746.86;647130;216;31807;-73
2022/07/24 09:49:23;;;;;;;4.72;4.32;;;33.40;1.40;;;34.34;56.23;95743.39;647642;216;31572;-72
2022/07/24 09:52:17;;;;;;;7.12;4.90;;;33.90;1.40;;;35.84;58.46;95742.98;645873;216;31642;-74
2022/07/24 09:54:59;;;;;;;5.28;4.78;;;34.20;1.40;;;35.99;52.93;95739.97;621273;226;32127;-73
2022/07/24 09:57:44;;;;;;;5.85;5.20;;;33.60;1.40;;;36.98;52.16;95740.81;647100;216;31638;-75
2022/07/24 10:00:27;;;;;;;5.43;4.93;;;34.90;1.40;;;36.28;51.47;95737.60;649201;216;31769;-72
2022/07/24 10:03:07;;;;;;;5.80;5.20;;;35.20;1.40;;;38.13;52.12;95738.89;646447;216;31873;-73
2022/07/24 10:05:49;;;;;;;7.93;5.00;;;36.20;1.40;;;38.32;50.95;95735.12;646033;216;31666;-72
2022/07/24 10:08:31;;;;;;;5.57;5.07;;;35.60;1.40;;;39.30;44.07;95728.23;648879;216;31829;-73
2022/07/24 10:11:14;;;;;;;5.43;4.93;;;36.10;1.40;;;39.50;44.59;95733.41;616610;226;31973;-74
2022/07/24 10:13:56;;;;;;;6.40;4.70;;;36.10;1.40;;;39.48;44.13;95727.27;646292;216;42256;-74
2022/07/24 10:16:38;;;;;;;5.18;4.78;;;36.20;1.40;;;38.73;44.37;95733.31;645794;216;31589;-74
2022/07/24 10:19:19;;;;;;;4.70;4.30;;;35.10;1.40;;;37.97;44.50;95729.51;646103;216;42231;-74
2022/07/24 10:22:01;;;;;;;7.80;4.85;;;34.70;1.40;;;38.65;45.32;95724.91;646744;212;31690;-73
2022/07/24 10:24:58;;;;;;;5.43;4.93;;;34.80;1.40;;;38.91;44.83;95721.59;646763;216;31592;-73
2022/07/24 10:27:41;;;;;;;4.80;4.40;;;35.70;1.40;;;37.59;44.92;95725.46;647526;216;31663;-72
2022/07/24 10:30:21;;;;;;;5.30;4.90;;;35.60;1.40;;;39.57;45.88;95719.75;647621;216;31590;-73
2022/07/24 10:35:51;;;;;;;5.80;5.20;;;35.50;1.40;;;40.76;41.82;95713.97;649593;216;31768;-73
2022/07/24 10:38:34;;;;;;;5.23;4.83;;;37.60;1.40;;;41.05;39.74;95710.13;650562;216;31562;-74
2022/07/24 10:41:16;;;;;;;5.13;4.70;;;36.70;1.40;;;37.14;42.00;95715.95;645701;216;31806;-73
2022/07/24 10:46:33;;;;;;;5.70;5.30;;;34.30;1.40;;;38.98;42.37;95700.40;641979;216;31462;-74
2022/07/24 10:49:14;;;;;;;5.10;4.70;;;36.00;1.40;;;38.77;42.72;95704.25;648124;216;42253;-73
2022/07/24 10:51:59;;;;;;;5.97;5.47;;;34.10;1.40;;;39.58;40.03;95698.02;644926;216;31585;-73
2022/07/24 10:54:41;;;;;;;5.50;4.60;;;35.90;1.40;;;39.89;39.79;95697.25;648796;216;42228;-73
2022/07/24 10:57:22;;;;;;;4.32;4.03;;;36.70;1.40;;;40.93;40.30;95698.73;646709;216;31618;-73
2022/07/24 11:00:03;;;;;;;4.80;4.40;;;37.30;1.40;;;39.93;40.53;95702.14;644926;212;31726;-73
2022/07/24 11:02:45;;;;;;;5.20;4.70;;;36.90;1.40;;;41.79;38.71;95699.02;646382;216;31647;-73
2022/07/24 11:05:29;;;;;;;5.37;4.93;;;36.80;1.40;;;41.10;38.16;95697.91;652017;216;31586;-73
2022/07/24 11:08:30;;;;;;;5.80;5.20;;;37.20;1.40;;;41.23;37.23;95698.13;645712;216;31577;-74
2022/07/24 11:11:12;;;;;;;5.00;4.60;;;36.90;1.40;;;41.08;38.27;95696.88;647995;216;31614;-73
2022/07/24 11:13:54;;;;;;;4.80;4.40;;;37.00;1.40;;;42.78;36.18;95694.86;622035;226;31941;-73
2022/07/24 11:16:36;;;;;;;4.90;4.60;;;37.90;1.40;;;40.74;36.13;95688.56;645268;216;31729;-74
2022/07/24 11:19:32;;;;;;;5.50;5.07;;;36.90;1.40;;;41.91;37.97;95688.19;645955;216;31594;-74
2022/07/24 11:22:17;;;;;;;5.07;4.68;;;36.90;1.40;;;43.42;37.00;95683.42;646028;216;31797;-73
2022/07/24 11:25:06;;;;;;;4.90;4.50;;;37.80;1.40;;;44.19;36.09;95680.84;648953;216;31570;-74
2022/07/24 11:27:47;;;;;;;4.90;4.50;;;39.00;1.40;;;43.86;33.63;95673.95;646721;216;31603;-74
2022/07/24 11:30:29;;;;;;;5.22;4.72;;;37.20;1.40;;;43.68;36.32;95672.47;649450;212;42747;-75
2022/07/24 11:35:51;;;;;;;4.97;4.57;;;38.70;1.40;;;42.48;34.01;95672.39;647447;212;31641;-73
2022/07/24 11:38:32;;;;;;;4.82;4.47;;;37.30;1.40;;;42.52;34.71;95671.47;646200;212;31582;-74
2022/07/24 11:41:14;;;;;;;5.10;4.70;;;36.50;1.40;;;40.55;35.97;95674.85;644298;212;31558;-73
2022/07/24 11:43:56;;;;;;;4.78;4.47;;;35.60;1.40;;;44.07;34.33;95666.26;647922;216;31824;-74
2022/07/24 11:46:41;;;;;;;5.30;4.90;;;37.50;1.40;;;42.75;32.75;95666.40;648297;216;31655;-75
2022/07/24 11:49:23;;;;;;;4.90;4.40;;;37.00;1.40;;;41.16;34.26;95667.49;633681;221;31738;-74
2022/07/24 11:52:04;;;;;;;5.37;4.97;;;35.90;1.40;;;40.97;34.81;95664.78;644509;216;31614;-75
2022/07/24 11:54:49;;;;;;;4.70;4.30;;;36.30;1.40;;;43.09;33.81;95658.88;649130;216;31570;-74
2022/07/24 11:57:37;;;;;;;4.78;4.47;;;36.90;1.40;;;43.95;33.98;95653.39;651168;216;31585;-79
2022/07/24 12:00:25;;;;;;;5.00;4.60;;;37.60;1.40;;;44.19;34.72;95654.24;646029;216;42467;-74
2022/07/24 12:03:06;;;;;;;5.40;5.00;;;37.30;1.40;;;43.43;33.06;95652.50;646530;212;31571;-75
2022/07/24 12:05:48;;;;;;;5.37;4.97;;;36.60;1.40;;;44.41;31.41;95648.73;649050;216;31950;-75
2022/07/24 12:08:33;;;;;;;5.33;4.93;;;36.40;1.40;;;43.18;32.66;95648.91;646493;212;32233;-76
2022/07/24 12:11:22;;;;;;;5.07;4.67;;;36.90;1.40;;;44.67;32.01;95643.67;647033;216;31660;-75
2022/07/24 12:14:15;;;;;;;4.80;4.50;;;37.30;1.40;;;44.60;31.51;95639.22;646893;216;31567;-75